WetterOnline ( http://www.wetteronline.de )

Wetter aktuell Uckermark

Aktuelles Wetter: Angermünde (55m)

6-stündlich | Neueste Meldungen
Ortszeit Temperatur Wetter
So, 22.07. 14:00 25.1° C bedeckt
So, 22.07. 8:00 18.4° C bedeckt
So, 22.07. 2:00 15.9° C bedeckt
Sa, 21.07. 20:00 22.4° C bedeckt
Sa, 21.07. 14:00 25.4° C leicht bewölkt
Sa, 21.07. 8:00 17.3° C leicht bewölkt
Sa, 21.07. 2:00 13.0° C leicht bewölkt
Fr, 20.07. 20:00 23.1° C wolkenlos
Ortszeit Temperatur Wetter
So, 22.07. 14:00 25.1° C bedeckt
So, 22.07. 13:50 25.1° C bedeckt
So, 22.07. 13:40 25.0° C bedeckt
So, 22.07. 13:30 25.5° C bedeckt
So, 22.07. 13:20 25.5° C bedeckt
So, 22.07. 13:10 25.7° C bedeckt
So, 22.07. 13:00 24.7° C bedeckt
So, 22.07. 12:30 24.3° C bedeckt
So, 22.07. 12:00 24.1° C bedeckt
So, 22.07. 11:30 24.3° C bedeckt
So, 22.07. 11:00 24.6° C wolkig
Ortszeit Relative Feuchte Sichtweite
So, 22.07. 14:00 44% 40 km
So, 22.07. 8:00 74% 21 km
So, 22.07. 2:00 87% 17 km
Sa, 21.07. 20:00 57% 20 km
Sa, 21.07. 14:00 41% 35 km
Sa, 21.07. 8:00 78% 35 km
Sa, 21.07. 2:00 92% 40 km
Fr, 20.07. 20:00 39% 55 km
Ortszeit Relative Feuchte Sichtweite
So, 22.07. 14:00 44% 40 km
So, 22.07. 13:50 44% -
So, 22.07. 13:40 44% -
So, 22.07. 13:30 39% 40 km
So, 22.07. 13:20 39% -
So, 22.07. 13:10 40% -
So, 22.07. 13:00 44% 40 km
So, 22.07. 12:30 44% 40 km
So, 22.07. 12:00 46% 35 km
So, 22.07. 11:30 47% 40 km
So, 22.07. 11:00 38% 30 km
Ortszeit Niederschlagsmenge Niederschlagsart
So, 22.07. 14:00 0.0 l/m2 in 6 Std. -
So, 22.07. 8:00 0.0 l/m2 in 12 Std. -
So, 22.07. 2:00 0.0 l/m2 in 6 Std. -
Sa, 21.07. 20:00 0.0 l/m2 in 12 Std. -
Sa, 21.07. 14:00 0.0 l/m2 in 6 Std. -
Sa, 21.07. 8:00 0.0 l/m2 in 12 Std. -
Sa, 21.07. 2:00 0.0 l/m2 in 6 Std. -
Fr, 20.07. 20:00 0.0 l/m2 in 12 Std. -
Ortszeit Niederschlagsmenge Niederschlagsart
So, 22.07. 14:00 0.0 l/m2 in 1 Std. -
So, 22.07. 13:50 keine Meldung -
So, 22.07. 13:40 keine Meldung -
So, 22.07. 13:30 0.0 l/m2 in 1 Std. -
So, 22.07. 13:20 keine Meldung -
So, 22.07. 13:10 keine Meldung -
So, 22.07. 13:00 0.0 l/m2 in 1 Std. -
So, 22.07. 12:30 0.0 l/m2 in 1 Std. -
So, 22.07. 12:00 0.0 l/m2 in 1 Std. -
So, 22.07. 11:30 0.0 l/m2 in 1 Std. -
So, 22.07. 11:00 0.0 l/m2 in 1 Std. -
Ortszeit Stärke Spitze Richtung
km/h Bft. km/h Grad Sektor
So, 22.07. 14:00 7 2 14 260° W
So, 22.07. 8:00 4 1 11 250° W
So, 22.07. 2:00 0 0 11 - -
Sa, 21.07. 20:00 6 1 26 80° O
Sa, 21.07. 14:00 7 2 25 360° N
Sa, 21.07. 8:00 4 1 11 310° NW
Sa, 21.07. 2:00 4 1 22 300° NW
Fr, 20.07. 20:00 14 3 40 310° NW
Ortszeit Stärke Spitze Richtung
km/h Bft. km/h Grad Sektor
So, 22.07. 14:00 7 2 14 260° W
So, 22.07. 13:50 7 2 - 260° W
So, 22.07. 13:40 9 2 - 270° W
So, 22.07. 13:30 4 1 14 200° S
So, 22.07. 13:20 4 1 - 200° S
So, 22.07. 13:10 6 1 - 250° W
So, 22.07. 13:00 6 1 11 240° SW
So, 22.07. 12:30 7 2 11 260° W
So, 22.07. 12:00 6 1 11 210° SW
So, 22.07. 11:30 6 1 11 200° S
So, 22.07. 11:00 4 1 11 90° O
Ortszeit Untergrenze Bedeckung Gattung
total tief tief mittel hoch
So, 22.07. 14:00 3600 m 8/8 8/8 - - -
So, 22.07. 8:00 4800 m 8/8 8/8 - - -
So, 22.07. 2:00 4500 m 8/8 8/8 - - -
Sa, 21.07. 20:00 6300 m 8/8 8/8 - - -
Sa, 21.07. 14:00 8700 m 7/8 0/8 - - -
Sa, 21.07. 8:00 9000 m 7/8 0/8 - - -
Sa, 21.07. 2:00 9000 m 6/8 0/8 - - -
Fr, 20.07. 20:00 2100 m 0/8 0/8 - - -
Ortszeit Bedeckungsgrad in Achtel und Wolkenuntergrenze
So, 22.07. 14:00 8(3600m) 8(6600m)
So, 22.07. 13:50 8(3600m) 8(6600m)
So, 22.07. 13:40 8(3600m) 8(5700m) 8(6600m)
So, 22.07. 13:30 8(3900m) 8(5700m) 8(7200m)
So, 22.07. 13:20 8(3900m) 8(5700m) 8(7200m)
So, 22.07. 13:10 8(3900m) 8(5700m) 8(7200m)
So, 22.07. 13:00 8(3600m) 8(7200m)
So, 22.07. 12:30 8(3300m) 8(5100m)
So, 22.07. 12:00 8(3600m) 8(6000m)
So, 22.07. 11:30 2(3600m) 8(4200m) 8(6000m)
So, 22.07. 11:00 8(4200m) 8(6900m) 8(6000m)
Ortszeit Luftdruck NN (hPa) Tendenz (hPa in 3 Std.)
So, 22.07. 14:00 1013 + 0,1
So, 22.07. 8:00 1013 + 0,7
So, 22.07. 2:00 1013 + 0,1
Sa, 21.07. 20:00 1012 - 0,4
Sa, 21.07. 14:00 1013 - 0,6
Sa, 21.07. 8:00 1013 + 0,1
Sa, 21.07. 2:00 1013 - 0,5
Fr, 20.07. 20:00 1013 0,0
Ortszeit Luftdruck NN (hPa) Tendenz (hPa in 3 Std.)
So, 22.07. 14:00 1013 + 0,1
So, 22.07. 13:50 1013 keine Meldung
So, 22.07. 13:40 1013 keine Meldung
So, 22.07. 13:30 1013 + 0,1
So, 22.07. 13:20 1013 keine Meldung
So, 22.07. 13:10 1013 keine Meldung
So, 22.07. 13:00 1013 + 0,1
So, 22.07. 12:30 1013 + 0,1
So, 22.07. 12:00 1013 0,0
So, 22.07. 11:30 1013 + 0,2
So, 22.07. 11:00 1013 + 0,2
Ortszeit Schneehöhe (cm)
So, 22.07. 14:00 0
So, 22.07. 8:00 0
So, 22.07. 2:00 0
Sa, 21.07. 20:00 0
Sa, 21.07. 14:00 0
Sa, 21.07. 8:00 0
Sa, 21.07. 2:00 0
Fr, 20.07. 20:00 0
Ortszeit Schneehöhe (cm)
So, 22.07. 14:00 0
So, 22.07. 13:50 0
So, 22.07. 13:40 0
So, 22.07. 13:30 0
So, 22.07. 13:20 0
So, 22.07. 13:10 0
So, 22.07. 13:00 0
So, 22.07. 12:30 0
So, 22.07. 12:00 0
So, 22.07. 11:30 0
So, 22.07. 11:00 0
Link zu dieser Seite / Seite empfehlen

Das Wetter in ...